Time;durP1;ratioP1;P1;durP2;ratioP2;P2;SDS_P1;SDS_P2;PMS_P1;PMS_P2;Temp;Humidity;BMP_temperature;BMP_pressure;BME280_temperature;BME280_humidity;BME280_pressure;Samples;Min_cycle;Max_cycle;Signal;HPM_P1;HPM_P2
2022/03/11 00:01:07;;;;;;;11.07;6.80;;;3.30;99.90;;;;;;5088833;28;20242;-74
2022/03/11 00:03:33;;;;;;;12.05;6.53;;;3.30;99.90;;;;;;5088757;28;20239;-74
2022/03/11 00:05:59;;;;;;;12.68;7.05;;;3.20;99.90;;;;;;5088781;28;20214;-73
2022/03/11 00:08:25;;;;;;;12.32;6.72;;;3.20;99.90;;;;;;5088242;28;20238;-73
2022/03/11 00:10:51;;;;;;;15.82;7.35;;;3.20;99.90;;;;;;5088705;28;20202;-74
2022/03/11 00:13:17;;;;;;;12.68;7.22;;;3.20;99.90;;;;;;5088734;28;20195;-73
2022/03/11 00:15:43;;;;;;;12.68;7.68;;;3.20;99.90;;;;;;5078842;28;20169;-74
2022/03/11 00:18:09;;;;;;;11.60;6.30;;;3.20;99.90;;;;;;5069263;28;20161;-73
2022/03/11 00:20:35;;;;;;;11.90;6.78;;;3.20;99.90;;;;;;5070549;28;20224;-73
2022/03/11 00:23:01;;;;;;;15.18;6.85;;;3.20;99.90;;;;;;5072506;28;20153;-73
2022/03/11 00:25:29;;;;;;;12.95;6.68;;;3.20;99.90;;;;;;5071779;28;20204;-73
2022/03/11 00:27:55;;;;;;;12.23;6.50;;;3.20;99.90;;;;;;5072312;28;20256;-73
2022/03/11 00:30:21;;;;;;;9.10;6.32;;;3.20;99.90;;;;;;5071056;28;20168;-73
2022/03/11 00:32:48;;;;;;;12.32;6.47;;;3.30;99.90;;;;;;5072758;28;20206;-73
2022/03/11 00:35:14;;;;;;;14.13;6.65;;;3.30;99.90;;;;;;5072783;28;20244;-73
2022/03/11 00:37:41;;;;;;;9.00;5.95;;;3.30;99.90;;;;;;5091766;28;20200;-73
2022/03/11 00:40:08;;;;;;;12.85;6.53;;;3.20;99.90;;;;;;5092275;28;20162;-73
2022/03/11 00:42:34;;;;;;;12.13;7.10;;;3.20;99.90;;;;;;5080231;28;20187;-72
2022/03/11 00:45:01;;;;;;;15.18;6.43;;;3.10;99.90;;;;;;5071906;28;20161;-73
2022/03/11 00:47:27;;;;;;;10.15;6.47;;;3.10;99.90;;;;;;5071993;28;20196;-72
2022/03/11 00:49:53;;;;;;;9.88;6.55;;;3.20;99.90;;;;;;5080739;28;20190;-73
2022/03/11 00:52:19;;;;;;;11.70;6.68;;;3.10;99.90;;;;;;5090680;28;20164;-72
2022/03/11 00:54:45;;;;;;;14.98;7.18;;;2.90;99.90;;;;;;5090572;28;20195;-72
2022/03/11 00:57:11;;;;;;;11.85;6.85;;;2.80;99.90;;;;;;5091700;28;20192;-72
2022/03/11 00:59:37;;;;;;;11.52;6.25;;;2.60;99.90;;;;;;5090602;28;20160;-73
2022/03/11 01:02:03;;;;;;;14.90;5.88;;;2.50;99.90;;;;;;5076948;28;20173;-72
2022/03/11 01:04:29;;;;;;;11.48;6.85;;;2.40;99.90;;;;;;5070132;28;20251;-74
2022/03/11 01:06:55;;;;;;;14.20;7.57;;;2.30;99.90;;;;;;5071568;28;20287;-73
2022/03/11 01:09:21;;;;;;;14.20;7.20;;;2.20;99.90;;;;;;5071589;28;20188;-73
2022/03/11 01:11:47;;;;;;;12.00;6.57;;;2.00;99.90;;;;;;5073215;28;20183;-73
2022/03/11 01:14:13;;;;;;;12.20;6.20;;;2.00;99.90;;;;;;5091509;28;20194;-73
2022/03/11 01:16:38;;;;;;;9.43;5.03;;;1.80;99.90;;;;;;5075147;28;20192;-73
2022/03/11 01:19:04;;;;;;;10.98;5.53;;;1.60;99.90;;;;;;5070135;28;20168;-73
2022/03/11 01:21:30;;;;;;;9.88;4.85;;;1.50;99.90;;;;;;5069989;28;20180;-73
2022/03/11 01:23:56;;;;;;;6.78;3.78;;;1.40;99.90;;;;;;5071313;28;20224;-73
2022/03/11 01:26:22;;;;;;;7.85;4.00;;;1.30;99.90;;;;;;5071189;28;20165;-73
2022/03/11 01:28:49;;;;;;;7.72;3.70;;;1.10;99.90;;;;;;5070417;28;20192;-73
2022/03/11 01:31:17;;;;;;;7.50;4.15;;;1.00;99.70;;;;;;5069697;28;20231;-73
2022/03/11 01:33:45;;;;;;;4.05;2.90;;;0.90;99.70;;;;;;5069810;28;20199;-73
2022/03/11 01:36:12;;;;;;;8.05;4.00;;;0.80;99.30;;;;;;5071072;28;20187;-73
2022/03/11 01:38:39;;;;;;;7.22;3.95;;;0.70;99.70;;;;;;5070961;28;20188;-73
2022/03/11 01:41:05;;;;;;;7.35;3.33;;;0.70;99.90;;;;;;5070984;28;20208;-73
2022/03/11 01:43:53;;;;;;;6.18;3.50;;;0.70;99.90;;;;;;5084960;28;20219;-73
2022/03/11 01:46:19;;;;;;;3.45;2.30;;;0.80;99.10;;;;;;5088648;28;20167;-74
2022/03/11 01:48:45;;;;;;;4.30;2.65;;;0.70;98.60;;;;;;5089666;28;20273;-74
2022/03/11 01:51:11;;;;;;;5.05;2.80;;;0.50;98.70;;;;;;5090929;28;20164;-73
2022/03/11 01:53:37;;;;;;;3.03;2.05;;;0.40;98.80;;;;;;5089461;28;20195;-73
2022/03/11 01:56:03;;;;;;;7.57;2.42;;;0.40;99.00;;;;;;5090879;28;20175;-73
2022/03/11 01:58:32;;;;;;;3.45;2.67;;;0.40;99.00;;;;;;5090589;28;20202;-73
2022/03/11 02:00:58;;;;;;;8.13;3.42;;;0.40;98.80;;;;;;5090563;28;20223;-73
2022/03/11 02:03:24;;;;;;;7.80;3.15;;;0.40;99.00;;;;;;5089224;28;20175;-73
2022/03/11 02:05:50;;;;;;;4.28;2.97;;;0.50;99.10;;;;;;5090568;28;20164;-73
2022/03/11 02:08:15;;;;;;;5.72;3.42;;;0.40;98.50;;;;;;5089136;28;20267;-73
2022/03/11 02:10:41;;;;;;;4.82;3.03;;;0.40;98.80;;;;;;5090458;28;20186;-73
2022/03/11 02:13:07;;;;;;;8.07;3.25;;;0.30;98.30;;;;;;5090284;28;20160;-73
2022/03/11 02:15:33;;;;;;;7.45;3.85;;;0.20;98.40;;;;;;5083260;28;20176;-73
2022/03/11 02:17:59;;;;;;;20.45;8.18;;;0.20;98.50;;;;;;5070296;28;20223;-74
2022/03/11 02:20:25;;;;;;;17.90;7.43;;;0.20;98.50;;;;;;5070258;28;20251;-73
2022/03/11 02:22:52;;;;;;;18.23;6.70;;;0.10;98.60;;;;;;5068960;28;20165;-73
2022/03/11 02:25:19;;;;;;;18.63;6.43;;;0.10;98.90;;;;;;5068836;28;20642;-74
2022/03/11 02:27:46;;;;;;;7.65;3.25;;;0.10;98.80;;;;;;5070052;28;20191;-73
2022/03/11 02:30:15;;;;;;;5.07;2.75;;;0.10;98.80;;;;;;5070165;28;20157;-74
2022/03/11 02:32:41;;;;;;;8.50;3.60;;;0.10;98.90;;;;;;5070119;28;20239;-73
2022/03/11 02:35:09;;;;;;;9.68;3.50;;;0.10;98.90;;;;;;5068423;28;20196;-73
2022/03/11 02:37:35;;;;;;;6.20;3.53;;;0.10;98.80;;;;;;5069780;28;20278;-74
2022/03/11 02:40:01;;;;;;;5.22;3.25;;;0.10;98.90;;;;;;5069793;28;20160;-73
2022/03/11 02:42:27;;;;;;;5.25;2.85;;;0.10;98.90;;;;;;5071274;28;20180;-74
2022/03/11 02:44:52;;;;;;;5.95;3.03;;;0.10;98.90;;;;;;5083872;28;20669;-74
2022/03/11 02:47:18;;;;;;;7.13;3.30;;;0.10;98.70;;;;;;5068249;28;20196;-74
2022/03/11 02:49:44;;;;;;;3.95;2.85;;;0.00;98.70;;;;;;5069572;28;20165;-73
2022/03/11 02:52:10;;;;;;;7.00;2.97;;;0.00;98.90;;;;;;5069550;28;20164;-73
2022/03/11 02:54:35;;;;;;;5.32;2.60;;;0.00;98.90;;;;;;5069341;28;20192;-73
2022/03/11 02:57:02;;;;;;;5.22;3.40;;;0.00;98.70;;;;;;5069439;28;20214;-73
2022/03/11 02:59:27;;;;;;;6.13;2.80;;;-0.10;98.90;;;;;;5069522;28;20157;-73
2022/03/11 03:01:53;;;;;;;5.15;2.90;;;-0.10;99.00;;;;;;5069381;28;20168;-73
2022/03/11 03:04:19;;;;;;;3.80;2.75;;;-0.20;98.60;;;;;;5078762;28;20700;-73
2022/03/11 03:06:45;;;;;;;6.30;3.42;;;-0.20;98.90;;;;;;5075135;28;20212;-73
2022/03/11 03:09:11;;;;;;;4.93;3.63;;;-0.20;98.80;;;;;;5069127;28;20199;-73
2022/03/11 03:11:37;;;;;;;3.78;2.60;;;-0.30;98.80;;;;;;5069364;28;20630;-73
2022/03/11 03:14:03;;;;;;;4.18;2.63;;;-0.30;99.10;;;;;;5069123;28;20252;-73
2022/03/11 03:16:29;;;;;;;5.38;3.33;;;-0.50;98.70;;;;;;5069124;28;20153;-73
2022/03/11 03:18:55;;;;;;;3.40;2.40;;;-0.50;98.50;;;;;;5069017;28;20673;-73
2022/03/11 03:21:22;;;;;;;4.47;2.17;;;-0.60;98.70;;;;;;5069082;28;20160;-74
2022/03/11 03:23:48;;;;;;;3.97;1.98;;;-0.60;98.80;;;;;;5069036;28;20157;-73
2022/03/11 03:26:14;;;;;;;4.80;2.92;;;-0.60;98.80;;;;;;5069129;28;20160;-73
2022/03/11 03:28:40;;;;;;;3.33;1.98;;;-0.60;98.40;;;;;;5067591;28;20704;-73
2022/03/11 03:31:06;;;;;;;3.90;2.53;;;-0.60;98.50;;;;;;5067716;28;20259;-74
2022/03/11 03:33:32;;;;;;;5.55;2.13;;;-0.60;98.80;;;;;;5068907;28;20185;-73
2022/03/11 03:35:58;;;;;;;3.97;2.50;;;-0.50;98.70;;;;;;5067641;28;20165;-73
2022/03/11 03:38:23;;;;;;;4.05;2.35;;;-0.50;98.70;;;;;;5068163;28;20324;-74
2022/03/11 03:40:49;;;;;;;2.10;1.88;;;-0.60;98.80;;;;;;5068781;28;20161;-73
2022/03/11 03:43:15;;;;;;;7.85;3.08;;;-0.60;99.10;;;;;;5083453;28;20191;-73
2022/03/11 03:45:41;;;;;;;8.68;3.58;;;-0.60;99.60;;;;;;5074824;28;20169;-73
2022/03/11 03:48:07;;;;;;;6.82;3.75;;;-0.50;99.90;;;;;;5067423;28;20191;-74
2022/03/11 03:50:33;;;;;;;6.95;3.20;;;-0.50;99.90;;;;;;5068798;28;20161;-73
2022/03/11 03:52:59;;;;;;;4.30;2.80;;;-0.50;99.90;;;;;;5070368;28;20175;-73
2022/03/11 03:55:25;;;;;;;5.43;3.83;;;-0.60;99.90;;;;;;5071456;28;20161;-73
2022/03/11 03:57:50;;;;;;;8.52;4.15;;;-0.70;99.90;;;;;;5071485;28;20266;-73
2022/03/11 04:00:17;;;;;;;4.78;3.55;;;-0.70;99.90;;;;;;5072720;28;20168;-73
2022/03/11 04:02:50;;;;;;;5.93;3.28;;;-0.70;99.90;;;;;;5072835;28;20153;-73
2022/03/11 04:05:17;;;;;;;6.97;3.95;;;-0.80;99.90;;;;;;5071168;28;20180;-73
2022/03/11 04:07:45;;;;;;;4.20;2.75;;;-0.90;99.90;;;;;;5071116;28;20204;-73
2022/03/11 04:10:13;;;;;;;5.22;2.25;;;-1.00;99.90;;;;;;5071135;28;20180;-73
2022/03/11 04:12:40;;;;;;;9.95;2.83;;;-1.00;99.90;;;;;;5072407;28;20253;-73
2022/03/11 04:15:08;;;;;;;13.07;3.45;;;-1.00;99.90;;;;;;5072470;28;20234;-73
2022/03/11 04:17:34;;;;;;;6.97;3.25;;;-0.90;99.90;;;;;;5072395;28;20153;-74
2022/03/11 04:20:00;;;;;;;7.55;3.45;;;-0.90;99.90;;;;;;5071169;28;20183;-73
2022/03/11 04:22:26;;;;;;;7.05;3.20;;;-0.90;99.90;;;;;;5072318;28;20197;-73
2022/03/11 04:24:53;;;;;;;4.68;2.78;;;-0.90;99.90;;;;;;5072289;28;20167;-74
2022/03/11 04:27:19;;;;;;;4.90;2.85;;;-0.80;99.90;;;;;;5072269;28;20153;-74
2022/03/11 04:29:45;;;;;;;3.92;2.65;;;-0.80;99.90;;;;;;5070594;28;20169;-74
2022/03/11 04:32:11;;;;;;;5.53;2.58;;;-0.90;99.90;;;;;;5070825;28;20220;-74
2022/03/11 04:34:37;;;;;;;4.03;2.80;;;-0.90;99.90;;;;;;5072128;28;20188;-74
2022/03/11 04:37:03;;;;;;;5.15;2.70;;;-0.90;99.90;;;;;;5072025;28;20153;-73
2022/03/11 04:39:29;;;;;;;5.40;2.60;;;-0.90;99.90;;;;;;5071853;28;20192;-73
2022/03/11 04:41:56;;;;;;;4.85;2.38;;;-0.90;99.90;;;;;;5071795;28;20258;-74
2022/03/11 04:44:22;;;;;;;5.07;2.70;;;-0.80;99.90;;;;;;5071815;28;20224;-74
2022/03/11 04:46:49;;;;;;;14.13;2.88;;;-0.90;99.90;;;;;;5071909;28;20157;-74
2022/03/11 04:49:16;;;;;;;9.88;3.35;;;-0.90;99.90;;;;;;5071670;28;20268;-74
2022/03/11 04:51:42;;;;;;;6.75;2.95;;;-0.90;99.90;;;;;;5071590;28;20677;-74
2022/03/11 04:54:09;;;;;;;5.18;3.33;;;-0.90;99.90;;;;;;5070172;28;20196;-73
2022/03/11 04:56:36;;;;;;;4.57;2.55;;;-0.90;99.90;;;;;;5071632;28;20152;-74
2022/03/11 04:59:02;;;;;;;5.88;3.08;;;-0.90;99.90;;;;;;5071530;28;20149;-74
2022/03/11 05:01:28;;;;;;;4.93;2.88;;;-0.80;99.90;;;;;;5071334;28;20207;-74
2022/03/11 05:03:54;;;;;;;3.83;2.17;;;-0.90;99.90;;;;;;5070416;28;20221;-73
2022/03/11 05:06:20;;;;;;;8.10;2.97;;;-0.90;99.90;;;;;;5069940;28;20646;-74
2022/03/11 05:08:46;;;;;;;7.07;3.40;;;-0.90;99.90;;;;;;5069881;28;20169;-74
2022/03/11 05:11:12;;;;;;;5.82;2.90;;;-1.00;99.90;;;;;;5071342;28;20188;-73
2022/03/11 05:13:39;;;;;;;5.25;2.63;;;-1.00;99.90;;;;;;5069739;28;20224;-75
2022/03/11 05:16:05;;;;;;;8.30;3.47;;;-1.00;99.90;;;;;;5069842;28;20255;-75
2022/03/11 05:18:31;;;;;;;8.55;3.13;;;-1.00;99.90;;;;;;5071343;28;20157;-75
2022/03/11 05:20:58;;;;;;;4.80;2.13;;;-1.00;99.90;;;;;;5069880;28;20254;-74
2022/03/11 05:23:24;;;;;;;4.70;2.58;;;-0.90;99.90;;;;;;5070969;28;20157;-74
2022/03/11 05:25:51;;;;;;;6.57;4.00;;;-0.90;99.90;;;;;;5069943;28;20241;-73
2022/03/11 05:28:17;;;;;;;9.63;3.03;;;-0.90;99.90;;;;;;5069927;28;20183;-73
2022/03/11 05:30:42;;;;;;;4.75;2.78;;;-1.00;99.90;;;;;;5071354;28;20196;-73
2022/03/11 05:33:09;;;;;;;7.28;2.78;;;-1.20;99.90;;;;;;5070950;28;20254;-73
2022/03/11 05:35:35;;;;;;;4.93;2.33;;;-1.10;99.90;;;;;;5071125;28;20157;-74
2022/03/11 05:38:01;;;;;;;5.35;2.60;;;-1.20;99.90;;;;;;5069534;28;20164;-73
2022/03/11 05:40:27;;;;;;;6.22;3.40;;;-1.20;99.90;;;;;;5069482;28;20192;-73
2022/03/11 05:42:53;;;;;;;5.00;2.55;;;-1.20;99.90;;;;;;5070718;28;20187;-73
2022/03/11 05:45:19;;;;;;;6.63;2.97;;;-1.30;99.90;;;;;;5070682;28;20172;-74
2022/03/11 05:47:45;;;;;;;3.42;2.13;;;-1.30;99.90;;;;;;5070966;28;20221;-74
2022/03/11 05:50:12;;;;;;;5.45;2.28;;;-1.30;99.90;;;;;;5070769;28;20197;-73
2022/03/11 05:52:40;;;;;;;7.97;2.75;;;-1.30;99.90;;;;;;5070673;28;20219;-75
2022/03/11 05:55:07;;;;;;;6.95;2.42;;;-1.30;99.90;;;;;;5069208;28;20197;-74
2022/03/11 05:57:33;;;;;;;4.18;2.50;;;-1.30;99.90;;;;;;5070529;28;20164;-74
2022/03/11 05:59:59;;;;;;;4.78;2.13;;;-1.30;99.90;;;;;;5069111;28;20177;-74
2022/03/11 06:02:25;;;;;;;5.28;2.60;;;-1.40;99.70;;;;;;5070250;28;20274;-73
2022/03/11 06:04:51;;;;;;;4.05;2.38;;;-1.40;99.70;;;;;;5069002;28;20165;-72
2022/03/11 06:07:17;;;;;;;3.22;2.10;;;-1.30;99.90;;;;;;5069805;28;20231;-74
2022/03/11 06:09:42;;;;;;;3.33;2.22;;;-1.30;99.70;;;;;;5069857;28;20169;-75
2022/03/11 06:12:08;;;;;;;5.95;2.63;;;-1.20;99.50;;;;;;5068665;28;20197;-74
2022/03/11 06:14:34;;;;;;;3.90;2.38;;;-1.20;99.50;;;;;;5069867;28;20270;-73
2022/03/11 06:17:00;;;;;;;5.03;2.53;;;-1.20;99.30;;;;;;5069443;28;20156;-73
2022/03/11 06:19:26;;;;;;;4.63;2.60;;;-1.10;99.10;;;;;;5069690;28;20157;-75
2022/03/11 06:21:55;;;;;;;4.53;3.00;;;-1.00;99.30;;;;;;5069637;28;20197;-74
2022/03/11 06:24:21;;;;;;;8.18;2.53;;;-1.00;98.90;;;;;;5069465;28;20153;-73
2022/03/11 06:26:47;;;;;;;3.17;1.85;;;-1.00;98.90;;;;;;5069829;28;20188;-73
2022/03/11 06:29:12;;;;;;;5.10;2.58;;;-1.00;99.00;;;;;;5068391;28;20225;-74
2022/03/11 06:31:38;;;;;;;5.45;2.85;;;-1.00;99.10;;;;;;5068145;28;20222;-74
2022/03/11 06:34:04;;;;;;;4.80;2.92;;;-0.90;98.30;;;;;;5068396;28;20354;-73
2022/03/11 06:36:30;;;;;;;4.72;2.30;;;-1.10;98.50;;;;;;5069379;28;20167;-74
2022/03/11 06:38:56;;;;;;;5.85;2.65;;;-1.00;98.30;;;;;;5069545;28;20161;-74
2022/03/11 06:41:22;;;;;;;3.83;2.42;;;-0.80;98.30;;;;;;5069435;28;20195;-74
2022/03/11 06:43:49;;;;;;;6.85;3.00;;;-0.80;97.70;;;;;;5069588;28;20161;-74
2022/03/11 06:46:16;;;;;;;5.15;2.30;;;-0.70;97.90;;;;;;5069533;28;20157;-74
2022/03/11 06:48:41;;;;;;;4.95;2.50;;;-0.50;97.80;;;;;;5069436;28;20187;-74
2022/03/11 06:51:07;;;;;;;4.68;2.33;;;-0.30;97.20;;;;;;5069103;28;20192;-73
2022/03/11 06:53:34;;;;;;;4.55;2.55;;;-0.60;96.90;;;;;;5067773;28;20261;-73
2022/03/11 06:56:00;;;;;;;4.75;2.25;;;-0.70;97.60;;;;;;5069188;28;20208;-72
2022/03/11 06:58:28;;;;;;;4.82;2.63;;;-0.50;97.10;;;;;;5067573;28;20169;-74
2022/03/11 07:00:54;;;;;;;4.93;3.00;;;-0.40;96.90;;;;;;5067752;28;20192;-74
2022/03/11 07:03:19;;;;;;;4.53;2.63;;;-0.20;97.20;;;;;;5067625;28;20171;-74
2022/03/11 07:05:46;;;;;;;7.10;2.40;;;0.20;96.80;;;;;;5067514;28;20216;-74
2022/03/11 07:08:14;;;;;;;6.63;2.58;;;-0.20;95.70;;;;;;5067647;28;20232;-73
2022/03/11 07:10:40;;;;;;;4.88;2.20;;;-0.30;96.50;;;;;;5068711;28;20204;-73
2022/03/11 07:13:06;;;;;;;4.60;2.50;;;-0.20;96.60;;;;;;5068812;28;20191;-73
2022/03/11 07:15:32;;;;;;;3.63;2.30;;;-0.10;96.20;;;;;;5068945;28;20164;-73
2022/03/11 07:17:58;;;;;;;6.90;3.75;;;0.10;96.00;;;;;;5068860;28;20157;-73
2022/03/11 07:20:24;;;;;;;6.65;2.60;;;0.20;95.50;;;;;;5068850;28;20176;-73
2022/03/11 07:22:50;;;;;;;9.23;3.88;;;0.20;95.40;;;;;;5067577;28;20164;-73
2022/03/11 07:25:17;;;;;;;3.65;2.63;;;0.60;95.20;;;;;;5068856;28;20163;-73
2022/03/11 07:27:45;;;;;;;7.32;3.10;;;0.70;95.80;;;;;;5068125;28;20168;-73
2022/03/11 07:30:12;;;;;;;6.22;4.10;;;1.10;95.20;;;;;;5067493;28;20194;-74
2022/03/11 07:32:39;;;;;;;4.90;2.85;;;1.40;94.70;;;;;;5068701;28;20192;-73
2022/03/11 07:35:08;;;;;;;4.72;2.70;;;1.20;93.70;;;;;;5068912;28;20211;-72
2022/03/11 07:37:36;;;;;;;4.53;2.40;;;0.90;94.00;;;;;;5068783;28;20192;-73
2022/03/11 07:40:03;;;;;;;4.28;3.10;;;1.20;94.00;;;;;;5067134;28;20199;-72
2022/03/11 07:42:29;;;;;;;3.95;2.72;;;1.50;92.90;;;;;;5083914;28;20231;-73
2022/03/11 07:44:54;;;;;;;4.20;2.60;;;1.60;93.10;;;;;;5088576;28;20172;-74
2022/03/11 07:47:20;;;;;;;8.00;3.40;;;1.30;92.70;;;;;;5087048;28;20167;-73
2022/03/11 07:49:47;;;;;;;3.03;2.38;;;1.20;93.10;;;;;;5088513;28;20164;-73
2022/03/11 07:52:15;;;;;;;3.65;2.47;;;1.40;92.80;;;;;;5088333;28;20219;-74
2022/03/11 07:54:43;;;;;;;6.50;2.88;;;2.20;92.80;;;;;;5088260;28;20210;-73
2022/03/11 07:57:09;;;;;;;6.30;2.72;;;3.10;91.10;;;;;;5088510;28;20156;-72
2022/03/11 07:59:37;;;;;;;7.28;2.97;;;3.50;90.60;;;;;;5088532;28;20152;-72
2022/03/11 08:02:04;;;;;;;8.02;3.10;;;4.60;90.60;;;;;;5088594;28;20267;-74
2022/03/11 08:04:29;;;;;;;5.65;3.20;;;6.10;86.00;;;;;;5088280;28;20203;-74
2022/03/11 08:06:56;;;;;;;6.18;2.97;;;7.40;83.40;;;;;;5088295;28;20238;-73
2022/03/11 08:09:22;;;;;;;4.55;3.03;;;6.40;82.30;;;;;;5087162;28;20179;-73
2022/03/11 08:11:47;;;;;;;6.15;2.90;;;5.70;85.50;;;;;;5087234;28;20196;-74
2022/03/11 08:14:13;;;;;;;4.68;3.00;;;5.40;85.70;;;;;;5088332;28;20192;-74
2022/03/11 08:16:41;;;;;;;5.90;3.17;;;6.40;85.30;;;;;;5088294;28;20159;-74
2022/03/11 08:19:09;;;;;;;4.22;2.60;;;5.50;83.90;;;;;;5086991;28;20174;-74
2022/03/11 08:21:35;;;;;;;4.97;3.65;;;5.70;85.50;;;;;;5087075;28;20192;-74
2022/03/11 08:24:00;;;;;;;6.13;3.20;;;6.40;84.80;;;;;;5086897;28;20172;-73
2022/03/11 08:26:27;;;;;;;4.32;3.00;;;8.10;82.20;;;;;;5086958;28;20176;-74
2022/03/11 08:28:53;;;;;;;5.28;2.85;;;8.50;79.40;;;;;;5086979;28;20229;-74
2022/03/11 08:31:19;;;;;;;4.97;2.95;;;8.40;79.70;;;;;;5088169;28;20253;-74
2022/03/11 08:33:45;;;;;;;7.57;3.75;;;10.10;77.60;;;;;;5086339;28;20196;-73
2022/03/11 08:36:11;;;;;;;4.07;3.22;;;11.00;77.00;;;;;;5096237;28;20188;-74
2022/03/11 08:38:37;;;;;;;6.22;3.15;;;10.50;74.60;;;;;;5087428;28;20168;-74
2022/03/11 08:41:06;;;;;;;5.00;3.45;;;8.50;77.10;;;;;;5089378;28;20688;-72
2022/03/11 08:43:33;;;;;;;5.47;3.25;;;8.10;78.60;;;;;;5091011;28;20699;-71
2022/03/11 08:45:58;;;;;;;4.68;2.92;;;9.30;76.90;;;;;;5090691;28;20219;-71
2022/03/11 08:48:24;;;;;;;6.25;3.75;;;10.20;75.70;;;;;;5090171;28;20200;-72
2022/03/11 08:50:50;;;;;;;5.05;3.60;;;10.40;75.40;;;;;;5091570;28;20635;-71
2022/03/11 08:53:19;;;;;;;7.15;3.63;;;9.90;77.10;;;;;;5091163;28;20203;-71
2022/03/11 08:55:44;;;;;;;9.20;3.97;;;10.50;76.80;;;;;;5088645;28;20225;-73
2022/03/11 08:58:11;;;;;;;4.65;3.67;;;11.70;73.40;;;;;;5088569;28;20200;-73
2022/03/11 09:00:36;;;;;;;6.25;3.50;;;12.50;71.80;;;;;;5088922;28;20222;-71
2022/03/11 09:03:02;;;;;;;6.15;4.40;;;12.40;72.10;;;;;;5088042;28;20196;-71
2022/03/11 09:05:28;;;;;;;5.85;3.90;;;10.40;74.20;;;;;;5088622;28;20203;-71
2022/03/11 09:07:55;;;;;;;5.28;3.42;;;10.00;75.70;;;;;;5087270;28;20200;-70
2022/03/11 09:10:21;;;;;;;5.93;3.88;;;10.00;80.00;;;;;;5072634;28;20204;-73
2022/03/11 09:12:47;;;;;;;6.38;3.38;;;10.20;77.40;;;;;;5088855;28;20179;-71
2022/03/11 09:15:14;;;;;;;5.40;3.72;;;11.10;73.50;;;;;;5087699;28;20203;-73
2022/03/11 09:17:41;;;;;;;5.38;3.63;;;11.80;74.30;;;;;;5089721;28;20191;-72
2022/03/11 09:20:07;;;;;;;6.32;4.00;;;9.60;75.30;;;;;;5086929;28;20241;-73
2022/03/11 09:22:34;;;;;;;7.20;3.42;;;9.70;77.00;;;;;;5090162;28;20258;-72
2022/03/11 09:25:01;;;;;;;8.07;4.05;;;8.50;79.20;;;;;;5088492;28;20254;-72
2022/03/11 09:27:29;;;;;;;5.85;3.55;;;9.80;78.40;;;;;;5089423;28;20176;-73
2022/03/11 09:29:55;;;;;;;7.18;3.90;;;10.70;78.70;;;;;;5089247;28;20196;-73
2022/03/11 09:32:21;;;;;;;6.82;3.63;;;11.60;74.40;;;;;;5081109;28;20199;-70
2022/03/11 09:34:47;;;;;;;7.38;3.65;;;11.00;74.80;;;;;;5073967;28;20216;-70
2022/03/11 09:37:14;;;;;;;4.75;3.25;;;10.90;76.50;;;;;;5079179;28;20206;-69
2022/03/11 09:39:39;;;;;;;5.60;4.03;;;10.70;75.10;;;;;;5089561;28;20539;-70
2022/03/11 09:42:06;;;;;;;6.18;4.03;;;10.50;74.80;;;;;;5087066;28;20227;-68
2022/03/11 09:44:32;;;;;;;5.53;3.97;;;10.60;74.20;;;;;;5086946;28;20204;-72
2022/03/11 09:46:59;;;;;;;7.95;3.92;;;10.00;75.00;;;;;;5073247;28;20184;-68
2022/03/11 09:49:26;;;;;;;5.15;3.33;;;9.30;75.70;;;;;;5087666;28;20208;-68
2022/03/11 09:51:51;;;;;;;7.05;3.85;;;8.90;77.40;;;;;;5079957;28;20573;-72
2022/03/11 09:54:17;;;;;;;6.35;3.95;;;9.20;79.00;;;;;;5078017;28;20196;-73
2022/03/11 09:56:44;;;;;;;8.80;4.30;;;10.00;74.60;;;;;;5079332;28;20199;-73
2022/03/11 09:59:12;;;;;;;11.45;4.57;;;9.80;75.00;;;;;;5090460;28;20152;-73
2022/03/11 10:01:42;;;;;;;9.85;4.03;;;9.70;76.50;;;;;;5085691;28;20282;-73
2022/03/11 10:04:09;;;;;;;8.02;4.43;;;9.00;76.50;;;;;;5085834;28;20196;-70
2022/03/11 10:06:44;;;;;;;7.20;4.93;;;8.30;78.50;;;;;;5087666;28;20258;-73
2022/03/11 10:09:19;;;;;;;9.35;4.63;;;8.00;78.60;;;;;;5080827;28;20203;-73
2022/03/11 10:11:51;;;;;;;6.28;3.78;;;7.60;80.90;;;;;;5079726;28;20245;-72
2022/03/11 10:14:17;;;;;;;5.95;4.10;;;7.70;80.40;;;;;;5071417;28;20202;-73
2022/03/11 10:16:46;;;;;;;6.95;3.83;;;9.10;78.90;;;;;;5068437;28;20197;-73
2022/03/11 10:19:14;;;;;;;5.68;3.58;;;9.30;76.80;;;;;;5069945;28;20191;-73
2022/03/11 10:21:42;;;;;;;5.45;3.75;;;10.10;77.30;;;;;;5068870;28;20203;-73
2022/03/11 10:24:14;;;;;;;7.30;4.30;;;10.30;74.50;;;;;;5068313;28;20255;-73
2022/03/11 10:26:46;;;;;;;8.52;3.67;;;10.70;74.70;;;;;;5085810;28;20191;-72
2022/03/11 10:29:23;;;;;;;9.52;3.70;;;10.50;75.90;;;;;;5089849;28;20158;-73
2022/03/11 10:31:55;;;;;;;4.88;3.53;;;10.50;75.20;;;;;;5088638;28;20184;-73
2022/03/11 10:34:32;;;;;;;6.22;3.28;;;10.70;76.20;;;;;;5087964;28;20580;-73
2022/03/11 10:37:09;;;;;;;5.55;3.83;;;10.60;74.20;;;;;;5088983;28;20156;-73
2022/03/11 10:39:41;;;;;;;9.57;4.18;;;8.90;77.00;;;;;;5089402;28;20143;-73
2022/03/11 10:42:17;;;;;;;6.78;3.92;;;8.90;78.60;;;;;;5088574;28;20171;-73
2022/03/11 10:45:04;;;;;;;7.82;3.85;;;9.70;76.50;;;;;;5087951;28;20195;-73
2022/03/11 10:47:34;;;;;;;5.15;3.58;;;10.10;76.70;;;;;;5089275;28;20211;-73
2022/03/11 10:50:06;;;;;;;6.15;3.88;;;10.70;75.40;;;;;;5089334;28;20160;-73
2022/03/11 10:52:36;;;;;;;8.15;4.35;;;9.50;78.00;;;;;;5087118;28;20183;-72
2022/03/11 10:55:23;;;;;;;5.97;3.83;;;8.30;79.60;;;;;;5088760;28;20283;-72
2022/03/11 10:57:53;;;;;;;5.35;3.85;;;7.90;83.20;;;;;;5087823;28;20759;-72
2022/03/11 11:00:26;;;;;;;6.82;4.05;;;8.30;79.20;;;;;;5088775;28;20156;-73
2022/03/11 11:02:54;;;;;;;7.60;3.72;;;8.50;80.70;;;;;;5087834;28;20163;-73
2022/03/11 11:05:21;;;;;;;4.53;3.47;;;9.00;79.50;;;;;;5088999;28;20192;-73
2022/03/11 11:07:47;;;;;;;5.75;3.85;;;8.00;82.40;;;;;;5089010;28;20218;-73
2022/03/11 11:10:16;;;;;;;11.32;5.40;;;7.80;82.70;;;;;;5087512;28;20184;-73
2022/03/11 11:12:42;;;;;;;7.78;4.32;;;7.40;83.30;;;;;;5088429;28;20186;-71
2022/03/11 11:15:09;;;;;;;7.45;4.85;;;7.30;82.60;;;;;;5088753;28;20207;-73
2022/03/11 11:17:40;;;;;;;6.80;4.57;;;7.60;82.20;;;;;;5074624;28;20165;-73
2022/03/11 11:20:20;;;;;;;4.93;3.88;;;6.30;84.90;;;;;;5068896;28;20164;-72
2022/03/11 11:22:47;;;;;;;6.28;4.70;;;7.00;86.10;;;;;;5067079;28;20164;-73
2022/03/11 11:25:16;;;;;;;6.18;3.97;;;8.40;81.00;;;;;;5068829;28;20272;-72
2022/03/11 11:27:43;;;;;;;9.98;4.70;;;8.00;81.20;;;;;;5068868;28;20183;-75
2022/03/11 11:30:09;;;;;;;8.02;4.40;;;8.90;79.70;;;;;;5068771;28;20153;-74
2022/03/11 11:32:38;;;;;;;5.47;4.47;;;10.10;79.50;;;;;;5066701;28;20200;-74
2022/03/11 11:35:24;;;;;;;5.10;4.10;;;9.40;78.80;;;;;;5066793;28;20208;-74
2022/03/11 11:37:50;;;;;;;8.93;4.97;;;9.20;78.20;;;;;;5068438;28;20210;-74
2022/03/11 11:40:32;;;;;;;6.15;3.78;;;8.80;81.70;;;;;;5068392;28;20157;-74
2022/03/11 11:43:25;;;;;;;8.02;4.05;;;9.30;79.90;;;;;;5071317;28;20187;-74
2022/03/11 11:46:12;;;;;;;6.35;4.68;;;9.10;78.70;;;;;;5088552;28;20192;-74
2022/03/11 11:48:42;;;;;;;6.55;4.47;;;8.00;83.90;;;;;;5088346;28;20195;-73
2022/03/11 11:51:13;;;;;;;5.40;3.63;;;9.20;79.00;;;;;;5087210;28;20164;-73
2022/03/11 11:53:42;;;;;;;6.32;4.25;;;8.80;79.20;;;;;;5088560;28;20647;-73
2022/03/11 11:56:27;;;;;;;9.15;4.75;;;7.70;82.20;;;;;;5087259;28;20194;-74
2022/03/11 11:58:57;;;;;;;7.70;4.78;;;7.60;83.90;;;;;;5087541;28;20271;-73
2022/03/11 12:01:55;;;;;;;6.47;4.90;;;8.30;83.40;;;;;;5085338;28;20278;-74
2022/03/11 12:04:29;;;;;;;6.30;4.93;;;8.80;80.40;;;;;;5086681;28;20153;-74
2022/03/11 12:07:02;;;;;;;6.07;4.20;;;9.20;81.50;;;;;;5085361;28;20215;-74
2022/03/11 12:09:47;;;;;;;6.25;4.38;;;10.00;78.70;;;;;;5077529;28;20184;-74
2022/03/11 12:12:19;;;;;;;6.00;4.13;;;10.30;79.20;;;;;;5066778;28;20200;-74
2022/03/11 12:15:08;;;;;;;6.20;4.57;;;11.20;78.70;;;;;;5071093;28;20180;-73
2022/03/11 12:17:48;;;;;;;8.13;4.60;;;11.20;77.20;;;;;;5068675;28;20176;-74
2022/03/11 12:20:31;;;;;;;10.88;4.43;;;11.00;76.20;;;;;;5070194;28;20599;-73
2022/03/11 12:23:09;;;;;;;6.00;4.57;;;10.80;76.00;;;;;;5070045;28;20160;-74
2022/03/11 12:25:54;;;;;;;5.63;4.35;;;10.80;77.50;;;;;;5070082;28;20183;-74
2022/03/11 12:28:39;;;;;;;6.03;4.53;;;10.60;77.20;;;;;;5070194;28;20156;-74
2022/03/11 12:31:09;;;;;;;6.03;4.57;;;10.00;77.90;;;;;;5069090;28;20287;-74
2022/03/11 12:33:41;;;;;;;8.00;4.65;;;9.80;78.20;;;;;;5071418;28;20188;-74
2022/03/11 12:36:14;;;;;;;8.38;4.70;;;8.00;82.80;;;;;;5071656;28;20161;-74
2022/03/11 12:38:40;;;;;;;6.25;4.25;;;6.90;85.80;;;;;;5071714;28;20153;-73
2022/03/11 12:41:09;;;;;;;5.15;3.97;;;6.40;87.70;;;;;;5071681;28;20697;-73
2022/03/11 12:43:36;;;;;;;7.35;3.70;;;6.10;88.60;;;;;;5079281;28;20164;-73
2022/03/11 12:46:03;;;;;;;7.68;4.45;;;5.50;87.30;;;;;;5091382;28;20255;-74
2022/03/11 12:48:36;;;;;;;9.85;5.00;;;5.10;90.10;;;;;;5089856;28;20160;-73
2022/03/11 12:51:04;;;;;;;11.73;4.38;;;4.60;89.80;;;;;;5091124;28;20741;-73
2022/03/11 12:53:31;;;;;;;6.65;4.22;;;4.60;90.90;;;;;;5091321;28;20162;-74